Página principal
METAR-TAF:

METAR-TAF

Aeroportos :

Bryce Canyon, Utah, Estados Unidos

latitude: 37-42-23N, longitude: 112-08-44W, altura: 2312 m

Observação actual do tempo

O boletim foi feito há 48 minutos, às 20:53 UTC
Vento 10 kt de su-sudeste
Temperatura 6°C
Humidade 49%
Pressão 1027 hPa

METAR: KBCE 162053Z AUTO 16010KT 06/M04 A3033 RMK AO2 SLP260 T00611039 $

Hora: 14:41 (21:41 UTC)

Previsão

O boletim foi feito há 3 horas e 59 minutos, às 17:42 UTC
Previsão válida de 16 às 18 UTC a 17 às 18 UTC
Vento 5 kt de oes-sudoeste
Visibilidade: 10 km
Poucas nuvensa uma altura de 18000 ft
A partir de 16 às 1900 UTC
Vento 6 kt de sudeste
Visibilidade: 10 km
Poucas nuvensa uma altura de 18000 ft
A partir de 17 às 0300 UTC
Vento 6 kt de oes-sudoeste
Visibilidade: 10 km
Poucas nuvensa uma altura de 18000 ft

TAF: KBCE 161742Z 1618/1718 25005KT P6SM FEW180 FM161900 14006KT P6SM FEW180 FM170300 24006KT P6SM FEW180

Observações e previsões do tempo de mais de 4000 aeroportos (mensagens METAR e TAF).

As estações disponíveis são os pontos amarelos e vermelhos sobre o mapa.

Mova o rato sobre o mapa para ver o nome da estação.

Depois clique no ponto para visualizar as observações e previsões meteorológicas.

Para alterar o mapa : clique nos botões verdes com uma cruz preta para aumentar o zoom; no botão verde com uma pitada de zoom; ou nas setas verdes para mapas adjacentes.


METAR-TAF: